createdAt,value
2019-04-14T00:02:22.824Z,37.10
2019-04-14T00:04:53.382Z,35.63
2019-04-14T00:07:25.407Z,35.73
2019-04-14T00:09:56.302Z,35.00
2019-04-14T00:12:27.330Z,31.23
2019-04-14T00:14:57.883Z,30.00
2019-04-14T00:17:28.757Z,30.27
2019-04-14T00:19:59.217Z,29.87
2019-04-14T00:22:30.689Z,28.87
2019-04-14T00:25:02.370Z,28.40
2019-04-14T00:27:32.819Z,30.33
2019-04-14T00:30:06.190Z,28.77
2019-04-14T00:32:44.587Z,29.07
2019-04-14T00:35:32.316Z,28.43
2019-04-14T00:38:17.245Z,28.67
2019-04-14T00:41:05.284Z,28.40
2019-04-14T00:43:57.444Z,30.53
2019-04-14T00:46:36.790Z,30.30
2019-04-14T00:49:07.438Z,31.03
2019-04-14T00:51:39.364Z,30.63
2019-04-14T00:54:10.877Z,28.30
2019-04-14T00:56:45.402Z,29.80
2019-04-14T00:59:15.774Z,30.67
2019-04-14T01:01:49.169Z,30.63
2019-04-14T01:04:19.477Z,31.03
2019-04-14T01:06:51.070Z,30.87
2019-04-14T01:09:22.147Z,29.37
2019-04-14T01:11:53.149Z,30.30
2019-04-14T01:14:23.712Z,28.33
2019-04-14T01:16:54.387Z,28.43
2019-04-14T01:19:24.716Z,30.23
2019-04-14T01:21:55.342Z,29.60
2019-04-14T01:24:27.152Z,29.67
2019-04-14T01:27:01.617Z,28.63
2019-04-14T01:29:32.145Z,29.57
2019-04-14T01:32:02.552Z,29.73
2019-04-14T01:34:33.208Z,29.27
2019-04-14T01:37:05.013Z,28.50
2019-04-14T01:39:35.714Z,29.13
2019-04-14T01:42:07.134Z,29.17
2019-04-14T01:44:37.586Z,29.23
2019-04-14T01:47:09.957Z,29.23
2019-04-14T01:49:41.826Z,29.83
2019-04-14T01:52:50.111Z,30.30
2019-04-14T01:55:33.395Z,30.73
2019-04-14T01:58:18.696Z,29.90
2019-04-14T02:01:17.648Z,30.50
2019-04-14T02:03:48.430Z,28.97
2019-04-14T02:06:20.077Z,30.73
2019-04-14T02:08:53.019Z,28.30
2019-04-14T02:11:24.752Z,29.10
2019-04-14T02:13:55.364Z,28.83
2019-04-14T02:16:32.775Z,29.33
2019-04-14T02:18:58.664Z,28.67
2019-04-14T02:21:30.281Z,28.93
2019-04-14T02:24:00.650Z,28.47
2019-04-14T02:26:31.033Z,27.70
2019-04-14T02:29:01.964Z,27.77
2019-04-14T02:31:57.042Z,27.20
2019-04-14T02:37:04.700Z,24.83
2019-04-14T02:39:42.043Z,24.83
2019-04-14T02:47:43.142Z,25.17
2019-04-14T02:49:51.480Z,24.60
2019-04-14T02:59:58.900Z,25.43
2019-04-14T03:02:40.861Z,25.77
2019-04-14T03:05:02.497Z,23.40
2019-04-14T03:07:46.148Z,24.53
2019-04-14T03:12:52.778Z,23.53
2019-04-14T03:15:28.017Z,25.20
2019-04-14T03:18:24.442Z,26.70
2019-04-14T03:21:09.187Z,27.47
2019-04-14T03:24:04.951Z,26.00
2019-04-14T03:29:20.773Z,27.13
2019-04-14T03:37:31.778Z,29.10
2019-04-14T03:39:45.947Z,31.17
2019-04-14T03:44:41.840Z,31.70
2019-04-14T03:47:13.537Z,31.33
2019-04-14T03:49:45.406Z,32.10
2019-04-14T03:52:13.345Z,31.03
2019-04-14T03:54:40.420Z,32.73
2019-04-14T03:56:55.458Z,32.93
2019-04-14T03:59:26.433Z,39.27
2019-04-14T04:01:58.502Z,32.17
2019-04-14T04:04:29.425Z,33.60
2019-04-14T04:07:01.861Z,32.73
2019-04-14T04:09:36.533Z,35.57
2019-04-14T04:12:09.847Z,32.80
2019-04-14T04:14:40.196Z,34.87
2019-04-14T04:17:29.801Z,37.50
2019-04-14T04:20:37.315Z,34.90
2019-04-14T04:23:20.461Z,36.60
2019-04-14T04:26:12.939Z,37.37
2019-04-14T04:29:15.708Z,35.40
2019-04-14T04:32:05.684Z,35.80
2019-04-14T04:34:59.945Z,34.03
2019-04-14T04:37:43.281Z,35.23
2019-04-14T04:40:20.669Z,36.13
2019-04-14T04:42:52.586Z,39.87
2019-04-14T04:45:26.191Z,34.97
2019-04-14T04:47:58.574Z,35.23
2019-04-14T04:50:30.271Z,42.73
2019-04-14T04:53:02.673Z,37.93
2019-04-14T04:55:32.994Z,37.00
2019-04-14T04:58:05.630Z,33.70
2019-04-14T05:00:37.273Z,33.77
2019-04-14T05:03:07.950Z,34.40
2019-04-14T05:06:27.016Z,36.40
2019-04-14T05:09:03.391Z,34.80
2019-04-14T05:11:40.412Z,34.77
2019-04-14T05:14:15.178Z,36.07
2019-04-14T05:16:46.135Z,37.60
2019-04-14T05:19:25.731Z,35.20
2019-04-14T05:21:50.151Z,37.77
2019-04-14T05:24:22.121Z,36.10
2019-04-14T05:26:52.746Z,36.27
2019-04-14T05:29:23.422Z,33.83
2019-04-14T05:31:55.434Z,36.77
2019-04-14T05:34:26.141Z,36.33
2019-04-14T05:36:56.586Z,35.63
2019-04-14T05:39:29.081Z,35.47
2019-04-14T05:42:09.431Z,41.53
2019-04-14T05:44:34.053Z,43.10
2019-04-14T05:47:04.758Z,40.83
2019-04-14T05:49:41.188Z,36.10
2019-04-14T05:52:07.758Z,36.00
2019-04-14T05:54:38.394Z,36.70
2019-04-14T05:57:08.843Z,40.53
2019-04-14T05:59:39.607Z,45.27
2019-04-14T06:02:11.470Z,49.50
2019-04-14T06:04:42.254Z,45.60
2019-04-14T06:07:12.793Z,47.13
2019-04-14T06:09:43.076Z,46.97
2019-04-14T06:12:13.406Z,47.10
2019-04-14T06:14:43.671Z,37.93
2019-04-14T06:17:13.952Z,43.63
2019-04-14T06:19:44.581Z,41.13
2019-04-14T06:22:15.617Z,38.23
2019-04-14T06:24:45.970Z,38.37
2019-04-14T06:27:16.163Z,36.33
2019-04-14T06:29:47.491Z,35.07
2019-04-14T06:32:33.628Z,35.93
2019-04-14T06:35:29.343Z,39.23
2019-04-14T06:38:04.532Z,39.33
2019-04-14T06:40:57.382Z,39.83
2019-04-14T06:43:28.348Z,41.20
2019-04-14T06:45:59.308Z,41.50
2019-04-14T06:48:29.650Z,41.67
2019-04-14T06:50:59.921Z,40.93
2019-04-14T06:53:30.174Z,41.17
2019-04-14T06:56:01.736Z,43.97
2019-04-14T06:58:32.329Z,43.20
2019-04-14T07:01:02.772Z,43.73
2019-04-14T07:03:33.061Z,45.47
2019-04-14T07:06:03.710Z,42.67
2019-04-14T07:08:33.953Z,44.33
2019-04-14T07:11:05.155Z,44.40
2019-04-14T07:13:35.422Z,40.97
2019-04-14T07:16:06.496Z,42.97
2019-04-14T07:18:37.168Z,43.20
2019-04-14T07:21:08.059Z,37.17
2019-04-14T07:23:39.800Z,35.83
2019-04-14T07:26:13.341Z,34.90
2019-04-14T07:28:56.131Z,32.73
2019-04-14T07:31:34.132Z,32.10
2019-04-14T07:34:32.973Z,31.67
2019-04-14T07:37:19.211Z,33.07
2019-04-14T07:39:54.782Z,35.90
2019-04-14T07:42:41.794Z,35.67
2019-04-14T07:45:37.559Z,37.93
2019-04-14T07:48:15.333Z,39.20
2019-04-14T07:51:01.989Z,41.37
2019-04-14T07:54:01.113Z,41.47
2019-04-14T07:56:49.215Z,42.33
2019-04-14T07:59:23.993Z,43.27
2019-04-14T08:02:19.764Z,45.90
2019-04-14T08:05:11.645Z,44.93
2019-04-14T08:07:43.031Z,45.13
2019-04-14T08:10:13.467Z,43.60
2019-04-14T08:12:44.351Z,44.43
2019-04-14T08:15:14.813Z,42.17
2019-04-14T08:17:45.981Z,44.03
2019-04-14T08:20:27.386Z,45.80
2019-04-14T08:22:50.501Z,43.40
2019-04-14T08:25:20.806Z,44.50
2019-04-14T08:27:51.008Z,45.10
2019-04-14T08:30:21.800Z,51.80
2019-04-14T08:32:52.667Z,44.23
2019-04-14T08:35:23.201Z,42.77
2019-04-14T08:37:53.873Z,42.97
2019-04-14T08:40:24.366Z,43.53
2019-04-14T08:43:12.447Z,44.20
2019-04-14T08:45:57.720Z,43.53
2019-04-14T08:48:43.857Z,43.23
2019-04-14T08:51:21.401Z,41.03
2019-04-14T08:53:58.898Z,46.43
2019-04-14T08:56:38.511Z,50.73
2019-04-14T08:59:28.159Z,45.10
2019-04-14T09:02:20.359Z,47.93
2019-04-14T09:05:10.048Z,44.40
2019-04-14T09:07:53.083Z,43.40
2019-04-14T09:10:29.798Z,43.73
2019-04-14T09:13:00.307Z,41.17
2019-04-14T09:15:30.784Z,42.17
2019-04-14T09:18:01.640Z,43.23
2019-04-14T09:20:33.611Z,43.93
2019-04-14T09:23:04.007Z,44.27
2019-04-14T09:25:35.031Z,41.67
2019-04-14T09:28:06.557Z,43.40
2019-04-14T09:30:37.587Z,43.07
2019-04-14T09:33:08.310Z,44.37
2019-04-14T09:35:38.959Z,44.53
2019-04-14T09:38:09.469Z,45.43
2019-04-14T09:40:40.279Z,44.50
2019-04-14T09:43:10.860Z,42.33
2019-04-14T09:45:41.181Z,45.37
2019-04-14T09:48:11.513Z,43.73
2019-04-14T09:50:42.034Z,44.60
2019-04-14T09:53:12.394Z,46.57
2019-04-14T09:55:43.091Z,45.27
2019-04-14T09:58:16.561Z,42.10
2019-04-14T10:00:47.025Z,47.57
2019-04-14T10:03:17.735Z,42.40
2019-04-14T10:05:48.727Z,45.50
2019-04-14T10:08:19.664Z,48.03
2019-04-14T10:10:53.803Z,47.20
2019-04-14T10:13:24.926Z,49.07
2019-04-14T10:15:55.578Z,46.67
2019-04-14T10:18:25.906Z,42.80
2019-04-14T10:20:57.551Z,71.77
2019-04-14T10:23:27.810Z,41.17
2019-04-14T10:25:58.714Z,42.30
2019-04-14T10:28:29.798Z,40.90
2019-04-14T10:31:00.628Z,42.53
2019-04-14T10:33:30.976Z,58.13
2019-04-14T10:36:01.602Z,44.17
2019-04-14T10:38:32.615Z,41.27
2019-04-14T10:41:02.954Z,47.57
2019-04-14T10:43:33.558Z,48.33
2019-04-14T10:46:03.759Z,66.17
2019-04-14T10:48:34.094Z,70.03
2019-04-14T10:51:04.437Z,41.17
2019-04-14T10:53:35.091Z,37.30
2019-04-14T10:56:05.371Z,71.17
2019-04-14T10:58:35.606Z,42.73
2019-04-14T11:01:06.069Z,38.30
2019-04-14T11:03:36.693Z,42.73
2019-04-14T11:06:14.662Z,44.30
2019-04-14T11:08:45.176Z,37.93
2019-04-14T11:11:15.884Z,38.90
2019-04-14T11:13:46.536Z,43.07
2019-04-14T11:16:16.774Z,47.70
2019-04-14T11:18:47.030Z,39.80
2019-04-14T11:21:17.279Z,38.17
2019-04-14T11:23:47.939Z,37.70
2019-04-14T11:26:18.553Z,36.17
2019-04-14T11:28:48.925Z,34.60
2019-04-14T11:31:38.998Z,33.43
2019-04-14T11:34:09.970Z,31.53
2019-04-14T11:37:08.304Z,33.37
2019-04-14T11:39:39.224Z,33.57
2019-04-14T11:42:09.548Z,35.13
2019-04-14T11:44:39.711Z,34.37
2019-04-14T11:47:10.480Z,34.50
2019-04-14T11:49:40.799Z,32.97
2019-04-14T11:52:11.348Z,34.57
2019-04-14T11:54:41.973Z,33.33
2019-04-14T11:57:12.638Z,33.70
2019-04-14T11:59:52.276Z,37.17
2019-04-14T12:02:40.438Z,32.73
2019-04-14T12:05:32.839Z,32.27
2019-04-14T12:08:11.972Z,32.33
2019-04-14T12:10:42.263Z,32.67
2019-04-14T12:13:12.558Z,34.93
2019-04-14T12:15:43.194Z,40.53
2019-04-14T12:18:13.805Z,36.57
2019-04-14T12:20:44.179Z,31.97
2019-04-14T12:23:16.086Z,31.03
2019-04-14T12:25:46.595Z,32.07
2019-04-14T12:28:17.309Z,31.97
2019-04-14T12:30:48.862Z,31.60
2019-04-14T12:33:19.541Z,33.50
2019-04-14T12:35:50.908Z,32.10
2019-04-14T12:38:21.193Z,29.83
2019-04-14T12:40:52.439Z,31.33
2019-04-14T12:43:33.410Z,30.70
2019-04-14T12:46:29.064Z,31.27
2019-04-14T12:49:04.305Z,30.33
2019-04-14T12:51:37.737Z,32.67
2019-04-14T12:54:08.577Z,30.43
2019-04-14T12:56:39.294Z,29.37
2019-04-14T12:59:17.465Z,29.87
2019-04-14T13:02:07.290Z,28.43
2019-04-14T13:04:38.061Z,28.67
2019-04-14T13:07:08.816Z,29.63
2019-04-14T13:09:39.417Z,29.03
2019-04-14T13:12:10.494Z,39.20
2019-04-14T13:14:40.987Z,34.90
2019-04-14T13:17:11.213Z,31.40
2019-04-14T13:19:41.645Z,31.30
2019-04-14T13:22:11.906Z,31.87
2019-04-14T13:24:42.548Z,30.63
2019-04-14T13:27:13.920Z,31.27
2019-04-14T13:29:44.290Z,31.23
2019-04-14T13:32:15.285Z,32.00
2019-04-14T13:34:45.665Z,31.60
2019-04-14T13:37:16.496Z,30.83
2019-04-14T13:39:47.094Z,31.00
2019-04-14T13:42:17.467Z,30.87
2019-04-14T13:44:49.466Z,30.23
2019-04-14T13:47:20.094Z,31.37
2019-04-14T13:49:51.007Z,30.90
2019-04-14T13:52:22.005Z,30.70
2019-04-14T13:54:52.836Z,31.63
2019-04-14T13:57:23.476Z,29.20
2019-04-14T13:59:53.941Z,30.20
2019-04-14T14:02:24.627Z,28.90
2019-04-14T14:04:55.467Z,30.40
2019-04-14T14:07:27.132Z,31.17
2019-04-14T14:09:59.942Z,32.40
2019-04-14T14:12:55.632Z,31.27
2019-04-14T14:15:48.039Z,31.67
2019-04-14T14:18:30.081Z,32.17
2019-04-14T14:21:15.522Z,30.43
2019-04-14T14:24:04.940Z,30.20
2019-04-14T14:26:36.677Z,30.93
2019-04-14T14:29:07.180Z,29.17
2019-04-14T14:31:38.830Z,28.37
2019-04-14T14:34:09.377Z,30.07
2019-04-14T14:36:40.337Z,27.90
2019-04-14T14:39:13.410Z,27.57
2019-04-14T14:41:43.894Z,27.53
2019-04-14T14:44:14.935Z,25.30
2019-04-14T14:47:04.566Z,24.80
2019-04-14T14:49:59.690Z,24.27
2019-04-14T14:52:31.218Z,23.40
2019-04-14T14:55:02.163Z,21.20
2019-04-14T14:57:32.693Z,21.27
2019-04-14T15:00:03.330Z,20.73
2019-04-14T15:02:34.359Z,19.57
2019-04-14T15:05:05.061Z,19.47
2019-04-14T15:07:35.560Z,18.33
2019-04-14T15:10:06.480Z,20.17
2019-04-14T15:12:36.889Z,19.43
2019-04-14T15:15:07.791Z,19.50
2019-04-14T15:17:38.260Z,18.73
2019-04-14T15:20:09.026Z,19.10
2019-04-14T15:22:39.476Z,17.07
2019-04-14T15:25:10.014Z,16.70
2019-04-14T15:27:40.434Z,17.93
2019-04-14T15:30:15.961Z,17.87
2019-04-14T15:32:46.690Z,18.50
2019-04-14T15:35:17.843Z,17.63
2019-04-14T15:37:48.683Z,18.37
2019-04-14T15:40:19.336Z,18.00
2019-04-14T15:42:51.203Z,17.43
2019-04-14T15:45:21.547Z,19.47
2019-04-14T15:47:52.188Z,22.07
2019-04-14T15:50:22.693Z,21.20
2019-04-14T15:52:53.469Z,22.77
2019-04-14T15:55:24.236Z,22.47
2019-04-14T15:58:21.115Z,19.73
2019-04-14T16:01:12.570Z,19.17
2019-04-14T16:03:51.029Z,19.13
2019-04-14T16:06:32.487Z,20.00
2019-04-14T16:09:30.965Z,19.77
2019-04-14T16:12:10.830Z,19.93
2019-04-14T16:15:12.331Z,19.93
2019-04-14T16:17:56.482Z,19.73
2019-04-14T16:20:31.297Z,18.33
2019-04-14T16:23:01.597Z,18.10
2019-04-14T16:25:49.921Z,17.77
2019-04-14T16:28:25.074Z,17.87
2019-04-14T16:31:13.111Z,17.70
2019-04-14T16:34:21.172Z,18.50
2019-04-14T16:36:51.981Z,19.50
2019-04-14T16:39:22.592Z,18.30
2019-04-14T16:41:53.190Z,17.57
2019-04-14T16:44:23.878Z,18.57
2019-04-14T16:46:55.170Z,19.50
2019-04-14T16:49:25.746Z,26.13
2019-04-14T16:52:02.229Z,21.67
2019-04-14T16:54:54.688Z,20.37
2019-04-14T16:57:43.091Z,20.57
2019-04-14T17:00:17.568Z,20.07
2019-04-14T17:02:50.188Z,19.77
2019-04-14T17:05:20.668Z,17.43
2019-04-14T17:07:53.452Z,21.83
2019-04-14T17:10:22.923Z,19.50
2019-04-14T17:12:53.282Z,19.57
2019-04-14T17:15:37.848Z,19.60
2019-04-14T17:18:14.536Z,16.70
2019-04-14T17:20:57.645Z,17.20
2019-04-14T17:23:35.496Z,17.33
2019-04-14T17:26:09.150Z,16.07
2019-04-14T17:28:56.930Z,16.30
2019-04-14T17:31:52.461Z,16.60
2019-04-14T17:34:37.192Z,15.00
2019-04-14T17:37:32.711Z,15.23
2019-04-14T17:40:10.130Z,17.00
2019-04-14T17:42:52.473Z,15.67
2019-04-14T17:45:37.205Z,14.57
2019-04-14T17:48:24.593Z,18.03
2019-04-14T17:51:03.430Z,16.13
2019-04-14T17:53:41.347Z,15.50
2019-04-14T17:56:15.847Z,13.87
2019-04-14T17:58:57.734Z,15.93
2019-04-14T18:01:47.015Z,16.20
2019-04-14T18:04:23.348Z,15.60
2019-04-14T18:06:58.631Z,15.43
2019-04-14T18:09:44.247Z,16.77
2019-04-14T18:12:51.485Z,18.03
2019-04-14T18:15:52.476Z,19.57
2019-04-14T18:18:44.926Z,16.57
2019-04-14T18:21:15.876Z,35.10
2019-04-14T18:23:46.489Z,21.50
2019-04-14T18:26:17.405Z,35.27
2019-04-14T18:28:56.425Z,25.10
2019-04-14T18:31:36.798Z,24.53
2019-04-14T18:34:29.098Z,17.07
2019-04-14T18:37:07.407Z,21.10
2019-04-14T18:40:08.887Z,20.00
2019-04-14T18:42:57.111Z,17.77
2019-04-14T18:45:36.826Z,18.40
2019-04-14T18:48:44.434Z,18.77
2019-04-14T18:51:22.828Z,19.03
2019-04-14T18:53:58.969Z,19.17
2019-04-14T18:56:45.650Z,21.77
2019-04-14T18:59:28.662Z,20.20
2019-04-14T19:01:59.037Z,19.23
2019-04-14T19:04:29.344Z,18.20
2019-04-14T19:06:59.601Z,21.60
2019-04-14T19:09:30.288Z,20.63
2019-04-14T19:12:18.087Z,20.27
2019-04-14T19:14:50.200Z,20.93
2019-04-14T19:17:27.311Z,21.77
2019-04-14T19:20:01.847Z,23.13
2019-04-14T19:22:29.750Z,23.40
2019-04-14T19:25:07.768Z,24.33
2019-04-14T19:27:32.783Z,19.43
2019-04-14T19:30:03.401Z,18.83
2019-04-14T19:32:34.150Z,21.23
2019-04-14T19:35:04.901Z,22.07
2019-04-14T19:37:38.422Z,22.70
2019-04-14T19:40:09.322Z,22.07
2019-04-14T19:42:39.599Z,20.90
2019-04-14T19:45:10.306Z,19.83
2019-04-14T19:47:40.629Z,20.73
2019-04-14T19:50:12.538Z,19.67
2019-04-14T19:52:43.218Z,22.30
2019-04-14T19:55:20.213Z,21.00
2019-04-14T19:57:46.164Z,21.03
2019-04-14T20:00:16.689Z,21.23
2019-04-14T20:02:47.516Z,17.70
2019-04-14T20:05:17.986Z,17.33
2019-04-14T20:07:51.601Z,19.50
2019-04-14T20:10:30.813Z,18.70
2019-04-14T20:13:02.025Z,18.33
2019-04-14T20:15:37.687Z,18.23
2019-04-14T20:18:14.044Z,19.17
2019-04-14T20:21:02.459Z,18.20
2019-04-14T20:23:52.010Z,17.23
2019-04-14T20:26:44.453Z,18.50
2019-04-14T20:29:19.322Z,19.47
2019-04-14T20:31:59.685Z,21.67
2019-04-14T20:34:31.756Z,22.17
2019-04-14T20:37:04.724Z,21.03
2019-04-14T20:39:36.929Z,21.80
2019-04-14T20:42:08.409Z,20.93
2019-04-14T20:44:39.128Z,20.27
2019-04-14T20:47:10.886Z,21.83
2019-04-14T20:49:42.019Z,19.50
2019-04-14T20:52:13.177Z,36.20
2019-04-14T20:54:43.817Z,30.20
2019-04-14T20:57:14.619Z,22.93
2019-04-14T20:59:46.674Z,24.50
2019-04-14T21:02:39.186Z,24.17
2019-04-14T21:05:32.705Z,24.37
2019-04-14T21:08:22.619Z,24.63
2019-04-14T21:11:03.734Z,35.70
2019-04-14T21:13:52.008Z,37.53
2019-04-14T21:16:34.101Z,24.13
2019-04-14T21:19:24.083Z,24.20
2019-04-14T21:22:22.636Z,25.10
2019-04-14T21:25:27.909Z,24.23
2019-04-14T21:28:15.615Z,19.20
2019-04-14T21:31:03.761Z,23.93
2019-04-14T21:33:56.026Z,27.20
2019-04-14T21:36:51.142Z,29.33
2019-04-14T21:39:41.943Z,25.60
2019-04-14T21:42:13.065Z,21.13
2019-04-14T21:44:43.577Z,25.37
2019-04-14T21:47:14.313Z,24.90
2019-04-14T21:49:44.877Z,30.33
2019-04-14T21:52:28.967Z,27.20
2019-04-14T21:55:01.727Z,26.83
2019-04-14T21:57:56.432Z,27.40
2019-04-14T22:01:31.768Z,33.33
2019-04-14T22:04:13.657Z,22.90
2019-04-14T22:06:49.189Z,21.10
2019-04-14T22:09:38.939Z,27.43
2019-04-14T22:12:09.274Z,42.83
2019-04-14T22:14:39.437Z,51.13
2019-04-14T22:17:09.395Z,37.50
2019-04-14T22:19:39.330Z,30.40
2019-04-14T22:22:09.369Z,27.37
2019-04-14T22:24:39.226Z,48.23
2019-04-14T22:27:09.090Z,52.03
2019-04-14T22:29:38.832Z,44.80
2019-04-14T22:32:08.931Z,41.60
2019-04-14T22:34:38.621Z,43.80
2019-04-14T22:37:08.741Z,43.30
2019-04-14T22:39:39.299Z,82.43
2019-04-14T22:42:09.502Z,90.77
2019-04-14T22:44:39.450Z,141.30
2019-04-14T22:47:09.330Z,224.23
2019-04-14T22:49:39.310Z,46.60
2019-04-14T22:52:09.289Z,34.20
2019-04-14T22:54:39.246Z,40.67
2019-04-14T22:57:09.283Z,32.93
2019-04-14T22:59:39.143Z,29.77
2019-04-14T23:02:14.518Z,28.00
2019-04-14T23:05:10.193Z,24.83
2019-04-14T23:07:58.986Z,25.07
2019-04-14T23:10:43.531Z,24.90
2019-04-14T23:13:19.903Z,22.23
2019-04-14T23:15:56.223Z,23.57
2019-04-14T23:18:43.831Z,41.20
2019-04-14T23:21:38.490Z,45.70
2019-04-14T23:24:17.381Z,39.50
2019-04-14T23:26:52.876Z,31.70
2019-04-14T23:29:18.714Z,26.00
2019-04-14T23:31:48.654Z,23.20
2019-04-14T23:34:18.482Z,21.83
2019-04-14T23:36:48.347Z,23.77
2019-04-14T23:39:18.375Z,22.23
2019-04-14T23:41:48.229Z,31.27
2019-04-14T23:44:17.963Z,28.00
2019-04-14T23:46:48.001Z,26.90
2019-04-14T23:49:17.701Z,26.03
2019-04-14T23:51:47.482Z,23.67
2019-04-14T23:54:17.459Z,23.87
2019-04-14T23:56:47.247Z,22.57
2019-04-14T23:59:17.338Z,22.10
